createdAt,value
2023-03-10T00:00:52.312Z,0.81
2023-03-10T00:04:52.595Z,0.81
2023-03-10T00:08:52.523Z,0.84
2023-03-10T00:12:52.448Z,0.82
2023-03-10T00:16:52.409Z,0.80
2023-03-10T00:20:52.490Z,0.80
2023-03-10T00:24:52.359Z,0.81
2023-03-10T00:28:52.325Z,0.81
2023-03-10T00:32:52.363Z,0.79
2023-03-10T00:36:52.245Z,0.79
2023-03-10T00:40:52.223Z,0.80
2023-03-10T00:44:52.191Z,0.81
2023-03-10T00:48:52.161Z,0.81
2023-03-10T00:52:52.143Z,0.81
2023-03-10T00:56:52.116Z,0.79
2023-03-10T01:00:52.164Z,0.79
2023-03-10T01:04:52.025Z,0.80
2023-03-10T01:08:51.995Z,0.79
2023-03-10T01:12:51.965Z,0.78
2023-03-10T01:16:51.896Z,0.78
2023-03-10T01:20:51.860Z,0.78
2023-03-10T01:24:51.885Z,0.78
2023-03-10T01:28:51.806Z,0.80
2023-03-10T01:37:10.678Z,0.50
2023-03-10T01:41:10.704Z,0.51
2023-03-10T01:45:10.625Z,0.51
2023-03-10T01:49:10.576Z,0.50
2023-03-10T01:53:10.581Z,0.52
2023-03-10T01:57:10.542Z,0.52
2023-03-10T02:01:10.528Z,0.51
2023-03-10T02:05:10.698Z,0.52
2023-03-10T02:09:10.672Z,0.52
2023-03-10T02:13:10.604Z,0.51
2023-03-10T02:17:10.582Z,0.51
2023-03-10T02:21:10.510Z,0.52
2023-03-10T02:25:10.488Z,0.51
2023-03-10T02:29:10.464Z,0.51
2023-03-10T02:33:10.446Z,0.51
2023-03-10T02:37:10.368Z,0.52
2023-03-10T02:41:10.389Z,0.52
2023-03-10T02:45:10.524Z,0.51
2023-03-10T02:49:10.590Z,0.51
2023-03-10T02:53:10.414Z,0.51
2023-03-10T02:57:10.431Z,0.51
2023-03-10T03:01:10.378Z,0.52
2023-03-10T03:05:10.300Z,0.51
2023-03-10T03:09:10.267Z,0.52
2023-03-10T03:13:10.243Z,0.51
2023-03-10T03:17:10.222Z,0.52
2023-03-10T03:21:10.147Z,0.51
2023-03-10T03:25:10.119Z,0.51
2023-03-10T03:29:10.238Z,0.51
2023-03-10T03:33:10.332Z,0.51
2023-03-10T03:37:10.442Z,0.51
2023-03-10T03:41:10.584Z,0.51
2023-03-10T03:45:10.771Z,0.50
2023-03-10T03:49:10.968Z,0.51
2023-03-10T03:53:11.087Z,0.52
2023-03-10T03:57:11.261Z,0.51
2023-03-10T04:01:11.450Z,0.52
2023-03-10T04:05:11.621Z,0.50
2023-03-10T04:09:11.772Z,0.52
2023-03-10T04:13:11.970Z,0.52
2023-03-10T04:17:12.381Z,0.51
2023-03-10T04:21:12.361Z,0.51
2023-03-10T04:25:12.537Z,0.51
2023-03-10T04:29:12.755Z,0.52
2023-03-10T04:33:12.968Z,0.51
2023-03-10T04:37:13.156Z,0.51
2023-03-10T04:41:13.361Z,0.51
2023-03-10T04:45:13.608Z,0.52
2023-03-10T04:49:13.819Z,0.51
2023-03-10T04:53:13.915Z,0.51
2023-03-10T04:57:14.107Z,0.51
2023-03-10T05:01:14.270Z,0.52
2023-03-10T05:05:14.429Z,0.50
2023-03-10T05:09:14.358Z,0.50
2023-03-10T05:13:14.353Z,0.50
2023-03-10T05:17:14.286Z,0.50
2023-03-10T05:21:14.233Z,0.51
2023-03-10T05:25:14.221Z,0.52
2023-03-10T05:29:14.229Z,0.50
2023-03-10T05:33:14.125Z,0.51
2023-03-10T05:37:14.084Z,0.52
2023-03-10T05:41:14.051Z,0.54
2023-03-10T05:45:14.019Z,0.52
2023-03-10T05:49:14.108Z,0.54
2023-03-10T05:53:14.334Z,0.54
2023-03-10T05:57:14.479Z,0.54
2023-03-10T06:01:14.715Z,0.53
2023-03-10T06:05:14.841Z,0.54
2023-03-10T06:09:14.988Z,0.54
2023-03-10T06:13:15.126Z,0.55
2023-03-10T06:17:15.297Z,0.55
2023-03-10T06:21:15.503Z,0.54
2023-03-10T06:25:15.735Z,0.56
2023-03-10T06:29:15.898Z,0.55
2023-03-10T06:33:16.372Z,0.56
2023-03-10T06:37:16.288Z,0.55
2023-03-10T06:41:16.290Z,0.57
2023-03-10T06:45:16.293Z,0.58
2023-03-10T06:49:16.529Z,0.65
2023-03-10T06:53:16.644Z,0.69
2023-03-10T06:57:20.917Z,0.69
2023-03-10T07:01:16.819Z,0.71
2023-03-10T07:05:16.744Z,0.74
2023-03-10T07:09:16.706Z,0.73
2023-03-10T07:13:16.670Z,0.74
2023-03-10T07:17:17.033Z,0.70
2023-03-10T07:21:16.739Z,0.68
2023-03-10T07:25:16.733Z,0.68
2023-03-10T07:29:16.658Z,0.72
2023-03-10T07:33:16.659Z,0.67
2023-03-10T07:37:16.621Z,0.62
2023-03-10T07:41:16.558Z,0.64
2023-03-10T07:45:16.536Z,0.67
2023-03-10T07:49:16.475Z,0.66
2023-03-10T07:53:16.459Z,0.65
2023-03-10T07:57:16.444Z,0.63
2023-03-10T08:01:16.382Z,0.66
2023-03-10T08:05:16.436Z,0.64
2023-03-10T08:09:16.312Z,0.63
2023-03-10T08:13:16.615Z,0.62
2023-03-10T08:17:16.247Z,0.64
2023-03-10T08:21:16.274Z,0.64
2023-03-10T08:25:16.137Z,0.65
2023-03-10T08:29:16.167Z,0.67
2023-03-10T08:33:16.081Z,0.67
2023-03-10T08:37:16.064Z,0.67
2023-03-10T08:41:16.063Z,0.64
2023-03-10T08:45:15.947Z,0.63
2023-03-10T08:49:15.965Z,0.60
2023-03-10T08:53:15.916Z,0.57
2023-03-10T08:57:15.902Z,0.57
2023-03-10T09:01:15.924Z,0.54
2023-03-10T09:05:15.891Z,0.51
2023-03-10T09:09:15.929Z,0.53
2023-03-10T09:13:16.182Z,0.54
2023-03-10T09:17:16.262Z,0.56
2023-03-10T09:21:16.486Z,0.57
2023-03-10T09:25:16.607Z,0.58
2023-03-10T09:29:16.784Z,0.49
2023-03-10T09:33:17.031Z,0.47
2023-03-10T09:37:17.150Z,0.50
2023-03-10T09:41:17.183Z,0.65
2023-03-10T09:45:17.248Z,0.69
2023-03-10T09:49:17.325Z,0.74
2023-03-10T09:53:17.351Z,1.00
2023-03-10T09:57:17.459Z,1.20
2023-03-10T10:01:17.497Z,1.24
2023-03-10T10:05:17.620Z,0.99
2023-03-10T10:09:17.508Z,1.12
2023-03-10T10:13:17.655Z,1.25
2023-03-10T10:17:17.633Z,1.49
2023-03-10T10:21:17.543Z,1.43
2023-03-10T10:25:17.533Z,1.35
2023-03-10T10:29:17.485Z,1.26
2023-03-10T10:33:17.500Z,1.20
2023-03-10T10:37:18.216Z,1.14
2023-03-10T10:41:17.346Z,1.19
2023-03-10T10:45:17.299Z,1.18
2023-03-10T10:49:17.293Z,1.28
2023-03-10T10:53:17.250Z,1.28
2023-03-10T10:57:17.225Z,1.27
2023-03-10T11:01:17.623Z,1.40
2023-03-10T11:05:17.141Z,1.36
2023-03-10T11:09:17.123Z,1.39
2023-03-10T11:13:17.073Z,1.36
2023-03-10T11:17:17.183Z,1.34
2023-03-10T11:21:17.109Z,1.36
2023-03-10T11:25:17.045Z,1.35
2023-03-10T11:29:17.168Z,1.19
2023-03-10T11:33:17.139Z,1.15
2023-03-10T11:37:17.109Z,1.17
2023-03-10T11:41:17.016Z,1.28
2023-03-10T11:45:16.971Z,1.24
2023-03-10T11:49:16.992Z,1.30
2023-03-10T11:53:16.915Z,1.52
2023-03-10T11:57:16.848Z,1.51
2023-03-10T12:01:16.821Z,1.44
2023-03-10T12:05:16.831Z,1.33
2023-03-10T12:09:16.859Z,1.38
2023-03-10T12:13:17.037Z,1.25
2023-03-10T12:17:17.329Z,1.05
2023-03-10T12:21:17.696Z,0.94
2023-03-10T12:25:18.207Z,0.79
2023-03-10T12:29:17.709Z,0.75
2023-03-10T12:33:17.588Z,0.73
2023-03-10T12:37:17.673Z,0.66
2023-03-10T12:41:17.557Z,0.66
2023-03-10T12:45:17.531Z,0.57
2023-03-10T12:49:17.510Z,0.61
2023-03-10T12:53:17.526Z,0.75
2023-03-10T12:57:17.450Z,0.86
2023-03-10T13:01:17.421Z,0.95
2023-03-10T13:05:17.325Z,0.96
2023-03-10T13:09:17.384Z,1.05
2023-03-10T13:13:17.677Z,1.12
2023-03-10T13:17:17.482Z,1.16
2023-03-10T13:21:17.410Z,1.22
2023-03-10T13:25:17.357Z,1.24
2023-03-10T13:29:17.361Z,1.29
2023-03-10T13:33:17.341Z,1.32
2023-03-10T13:37:17.241Z,1.32
2023-03-10T13:41:17.339Z,1.31
2023-03-10T13:49:10.961Z,0.50
2023-03-10T13:53:02.029Z,0.50
2023-03-10T13:57:01.990Z,0.51
2023-03-10T14:01:02.062Z,0.51
2023-03-10T14:05:01.896Z,0.51
2023-03-10T14:09:01.874Z,0.52
2023-03-10T14:13:01.900Z,0.52
2023-03-10T14:17:01.962Z,0.52
2023-03-10T14:21:01.778Z,0.53
2023-03-10T14:25:01.782Z,0.51
2023-03-10T14:29:01.860Z,0.52
2023-03-10T14:33:02.342Z,0.52
2023-03-10T14:37:01.649Z,0.51
2023-03-10T14:41:01.572Z,0.52
2023-03-10T14:45:01.933Z,0.52
2023-03-10T14:49:01.632Z,0.51
2023-03-10T14:53:01.451Z,0.51
2023-03-10T14:57:01.419Z,0.51
2023-03-10T15:01:01.413Z,0.51
2023-03-10T15:05:01.380Z,0.51
2023-03-10T15:09:01.298Z,0.50
2023-03-10T15:13:01.293Z,0.52
2023-03-10T15:17:03.942Z,0.52
2023-03-10T15:21:01.205Z,0.53
2023-03-10T15:25:01.182Z,0.52
2023-03-10T15:29:01.130Z,0.53
2023-03-10T15:33:01.188Z,0.52
2023-03-10T15:37:01.062Z,0.50
2023-03-10T15:41:01.051Z,0.52
2023-03-10T15:45:00.976Z,0.51
2023-03-10T15:49:00.968Z,0.55
2023-03-10T15:53:00.924Z,0.60
2023-03-10T15:57:00.865Z,0.58
2023-03-10T16:01:00.817Z,0.56
2023-03-10T16:05:00.854Z,0.52
2023-03-10T16:09:00.728Z,0.54
2023-03-10T16:13:00.700Z,0.54
2023-03-10T16:17:00.687Z,0.51
2023-03-10T16:21:00.655Z,0.50
2023-03-10T16:25:00.580Z,0.51
2023-03-10T16:29:00.565Z,0.50
2023-03-10T16:33:00.575Z,0.51
2023-03-10T16:37:00.548Z,0.54
2023-03-10T16:41:00.485Z,0.53
2023-03-10T16:45:00.433Z,0.69
2023-03-10T16:49:00.647Z,0.72
2023-03-10T16:53:00.700Z,0.89
2023-03-10T16:57:00.901Z,1.02
2023-03-10T17:01:01.046Z,0.95
2023-03-10T17:05:01.287Z,1.04
2023-03-10T17:09:01.415Z,1.14
2023-03-10T17:13:01.622Z,1.15
2023-03-10T17:17:01.987Z,1.15
2023-03-10T17:21:01.945Z,1.21
2023-03-10T17:25:02.046Z,1.19
2023-03-10T17:29:02.135Z,1.24
2023-03-10T17:33:02.317Z,1.27
2023-03-10T17:37:02.448Z,1.22
2023-03-10T17:41:02.637Z,1.37
2023-03-10T17:45:03.021Z,1.33
2023-03-10T17:49:02.895Z,1.34
2023-03-10T17:53:03.012Z,1.40
2023-03-10T17:57:03.111Z,1.35
2023-03-10T18:01:03.316Z,1.33
2023-03-10T18:05:03.437Z,1.31
2023-03-10T18:09:03.596Z,1.28
2023-03-10T18:13:03.877Z,1.32
2023-03-10T18:17:03.930Z,1.34
2023-03-10T18:21:04.064Z,1.35
2023-03-10T18:25:04.273Z,1.31
2023-03-10T18:29:04.442Z,1.33
2023-03-10T18:33:04.593Z,1.29
2023-03-10T18:37:04.882Z,1.31
2023-03-10T18:41:05.036Z,1.27
2023-03-10T18:45:05.211Z,1.29
2023-03-10T18:49:05.399Z,1.25
2023-03-10T18:53:05.581Z,1.27
2023-03-10T18:57:05.816Z,1.26
2023-03-10T19:01:05.978Z,1.29
2023-03-10T19:05:06.178Z,1.26
2023-03-10T19:09:06.410Z,1.28
2023-03-10T19:13:06.638Z,1.27
2023-03-10T19:17:06.906Z,1.28
2023-03-10T19:21:07.056Z,1.27
2023-03-10T19:25:07.376Z,1.26
2023-03-10T19:29:07.248Z,1.22
2023-03-10T19:33:07.191Z,1.22
2023-03-10T19:37:07.139Z,1.23
2023-03-10T19:41:07.130Z,1.23
2023-03-10T19:45:07.082Z,1.25
2023-03-10T19:49:07.026Z,1.18
2023-03-10T19:53:06.998Z,1.19
2023-03-10T19:57:06.947Z,1.21
2023-03-10T20:01:06.917Z,1.21
2023-03-10T20:05:06.877Z,1.20
2023-03-10T20:09:07.112Z,1.17
2023-03-10T20:13:07.304Z,1.19
2023-03-10T20:17:07.405Z,1.20
2023-03-10T20:21:07.599Z,1.17
2023-03-10T20:25:07.892Z,1.17
2023-03-10T20:29:07.815Z,1.19
2023-03-10T20:33:07.733Z,1.17
2023-03-10T20:37:07.702Z,1.16
2023-03-10T20:41:07.671Z,1.15
2023-03-10T20:45:07.678Z,1.17
2023-03-10T20:49:07.576Z,1.13
2023-03-10T20:53:07.546Z,1.16
2023-03-10T20:57:07.574Z,1.20
2023-03-10T21:01:07.603Z,1.21
2023-03-10T21:05:07.631Z,1.26
2023-03-10T21:09:07.545Z,1.23
2023-03-10T21:13:10.407Z,1.23
2023-03-10T21:17:07.564Z,1.25
2023-03-10T21:21:07.531Z,1.29
2023-03-10T21:25:07.379Z,1.29
2023-03-10T21:29:07.402Z,1.29
2023-03-10T21:33:07.395Z,1.30
2023-03-10T21:37:07.305Z,1.30
2023-03-10T21:41:07.270Z,1.31
2023-03-10T21:45:07.252Z,1.29
2023-03-10T21:49:07.444Z,1.30
2023-03-10T21:53:07.247Z,1.28
2023-03-10T21:57:07.450Z,1.32
2023-03-10T22:01:07.649Z,1.31
2023-03-10T22:05:07.788Z,1.31
2023-03-10T22:09:07.986Z,1.28
2023-03-10T22:13:08.167Z,1.31
2023-03-10T22:17:08.396Z,1.26
2023-03-10T22:21:08.569Z,1.26
2023-03-10T22:25:08.747Z,1.26
2023-03-10T22:29:08.938Z,1.27
2023-03-10T22:33:09.064Z,1.24
2023-03-10T22:37:09.294Z,1.28
2023-03-10T22:41:09.473Z,1.25
2023-03-10T22:45:09.672Z,1.22
2023-03-10T22:49:09.866Z,1.21
2023-03-10T22:53:10.017Z,1.24
2023-03-10T22:57:10.181Z,1.22
2023-03-10T23:01:10.426Z,1.20
2023-03-10T23:05:10.432Z,1.23
2023-03-10T23:09:10.940Z,1.21
2023-03-10T23:13:10.952Z,1.17
2023-03-10T23:17:10.575Z,1.20
2023-03-10T23:21:10.560Z,1.17
2023-03-10T23:25:10.489Z,1.17
2023-03-10T23:29:10.411Z,1.18
2023-03-10T23:33:10.437Z,1.15
2023-03-10T23:37:10.364Z,1.16
2023-03-10T23:41:10.290Z,1.13
2023-03-10T23:45:10.304Z,1.18
2023-03-10T23:49:10.221Z,1.15
2023-03-10T23:53:10.200Z,1.17
2023-03-10T23:57:10.269Z,1.10
